WMK weather

Meyers Chuck Seaplane Base
Meyers Chuck, Alaska, United States

Public forecast

Using degrees Fahrenheit for public forecast. Weather courtesy of forecast.io.

Closest aviation weather report (METAR) to Meyers Chuck Seaplane Base

Closest report is Klawock Airport, 29.4 nm (54.5 km) WSW. Retrieved 2020/08/08 07:41 UTC (9 minutes ago):

PAKW 080741Z AUTO 18006KT 10SM FEW016 BKN022 OVC047 12/11 A2997 RMK AO2 T01220111 TSNO

Closest aviation forecast (TAF) to Meyers Chuck Seaplane Base

Closest forecast is Klawock Airport, 29.4 nm (54.5 km) WSW. Retrieved 2020/08/08 06:36 UTC (1 hour ago):

TAF PAKW 080533Z 0806/0906 20007KT P6SM -SHRA FEW007 BKN035 OVC045 TEMPO 0806/0810 3SM SHRA BR SCT007 BKN012 OVC030 FM081000 19005KT P6SM -SHRA SCT012 OVC030 FM081900 21006KT P6SM -SHRA BKN040 OVC060 AMD LTD TO CLD VIS AND WIND